sensor_id;sensor_type;location;lat;lon;timestamp;P1;durP1;ratioP1;P2;durP2;ratioP2
14599;SDS011;7386;45.586;12.854;2023-01-23T00:00:53;7.20;;;4.93;;
14599;SDS011;7386;45.586;12.854;2023-01-23T00:03:21;7.07;;;4.90;;
14599;SDS011;7386;45.586;12.854;2023-01-23T00:06:01;7.13;;;4.97;;
14599;SDS011;7386;45.586;12.854;2023-01-23T00:08:30;6.50;;;4.67;;
14599;SDS011;7386;45.586;12.854;2023-01-23T00:10:58;6.33;;;4.80;;
14599;SDS011;7386;45.586;12.854;2023-01-23T00:13:27;8.90;;;5.50;;
14599;SDS011;7386;45.586;12.854;2023-01-23T00:15:55;6.43;;;4.73;;
14599;SDS011;7386;45.586;12.854;2023-01-23T00:18:24;6.13;;;4.63;;
14599;SDS011;7386;45.586;12.854;2023-01-23T00:20:52;7.30;;;5.37;;
14599;SDS011;7386;45.586;12.854;2023-01-23T00:23:22;7.23;;;5.00;;
14599;SDS011;7386;45.586;12.854;2023-01-23T00:25:50;6.13;;;4.80;;
14599;SDS011;7386;45.586;12.854;2023-01-23T00:28:19;6.93;;;5.00;;
14599;SDS011;7386;45.586;12.854;2023-01-23T00:30:47;7.20;;;4.87;;
14599;SDS011;7386;45.586;12.854;2023-01-23T00:33:16;7.07;;;4.87;;
14599;SDS011;7386;45.586;12.854;2023-01-23T00:35:44;5.53;;;4.33;;
14599;SDS011;7386;45.586;12.854;2023-01-23T00:38:13;5.93;;;4.60;;
14599;SDS011;7386;45.586;12.854;2023-01-23T00:40:43;7.03;;;4.70;;
14599;SDS011;7386;45.586;12.854;2023-01-23T00:43:11;4.80;;;3.77;;
14599;SDS011;7386;45.586;12.854;2023-01-23T00:45:40;6.00;;;4.47;;
14599;SDS011;7386;45.586;12.854;2023-01-23T00:48:08;5.43;;;3.97;;
14599;SDS011;7386;45.586;12.854;2023-01-23T00:50:37;5.80;;;4.70;;
14599;SDS011;7386;45.586;12.854;2023-01-23T00:53:05;5.30;;;4.30;;
14599;SDS011;7386;45.586;12.854;2023-01-23T00:55:34;5.20;;;4.03;;
14599;SDS011;7386;45.586;12.854;2023-01-23T00:58:03;5.03;;;3.77;;
14599;SDS011;7386;45.586;12.854;2023-01-23T01:00:32;6.50;;;4.23;;
14599;SDS011;7386;45.586;12.854;2023-01-23T01:03:01;4.93;;;3.97;;
14599;SDS011;7386;45.586;12.854;2023-01-23T01:05:29;5.50;;;4.20;;
14599;SDS011;7386;45.586;12.854;2023-01-23T01:07:58;5.90;;;4.27;;
14599;SDS011;7386;45.586;12.854;2023-01-23T01:10:26;7.73;;;4.93;;
14599;SDS011;7386;45.586;12.854;2023-01-23T01:12:57;5.73;;;4.13;;
14599;SDS011;7386;45.586;12.854;2023-01-23T01:15:27;4.37;;;3.67;;
14599;SDS011;7386;45.586;12.854;2023-01-23T01:17:56;5.27;;;3.87;;
14599;SDS011;7386;45.586;12.854;2023-01-23T01:20:25;5.20;;;4.07;;
14599;SDS011;7386;45.586;12.854;2023-01-23T01:22:54;4.70;;;3.73;;
14599;SDS011;7386;45.586;12.854;2023-01-23T01:25:22;5.43;;;3.83;;
14599;SDS011;7386;45.586;12.854;2023-01-23T01:27:51;4.80;;;3.70;;
14599;SDS011;7386;45.586;12.854;2023-01-23T01:30:21;4.87;;;3.73;;
14599;SDS011;7386;45.586;12.854;2023-01-23T01:32:52;5.47;;;4.00;;
14599;SDS011;7386;45.586;12.854;2023-01-23T01:35:21;6.03;;;4.30;;
14599;SDS011;7386;45.586;12.854;2023-01-23T01:37:50;4.97;;;3.73;;
14599;SDS011;7386;45.586;12.854;2023-01-23T01:40:19;4.47;;;3.47;;
14599;SDS011;7386;45.586;12.854;2023-01-23T01:42:49;5.70;;;3.53;;
14599;SDS011;7386;45.586;12.854;2023-01-23T01:48:06;4.30;;;3.33;;
14599;SDS011;7386;45.586;12.854;2023-01-23T01:50:34;4.53;;;3.70;;
14599;SDS011;7386;45.586;12.854;2023-01-23T01:53:03;5.90;;;3.67;;
14599;SDS011;7386;45.586;12.854;2023-01-23T01:55:31;5.03;;;3.57;;
14599;SDS011;7386;45.586;12.854;2023-01-23T01:58:00;4.27;;;3.60;;
14599;SDS011;7386;45.586;12.854;2023-01-23T02:00:28;3.70;;;2.97;;
14599;SDS011;7386;45.586;12.854;2023-01-23T02:02:57;5.07;;;3.47;;
14599;SDS011;7386;45.586;12.854;2023-01-23T02:05:30;4.53;;;3.40;;
14599;SDS011;7386;45.586;12.854;2023-01-23T02:08:01;3.60;;;3.10;;
14599;SDS011;7386;45.586;12.854;2023-01-23T02:10:30;3.87;;;3.30;;
14599;SDS011;7386;45.586;12.854;2023-01-23T02:13:16;5.03;;;3.43;;
14599;SDS011;7386;45.586;12.854;2023-01-23T02:15:45;3.67;;;3.23;;
14599;SDS011;7386;45.586;12.854;2023-01-23T02:18:14;4.97;;;3.63;;
14599;SDS011;7386;45.586;12.854;2023-01-23T02:20:44;4.33;;;3.37;;
14599;SDS011;7386;45.586;12.854;2023-01-23T02:23:15;4.70;;;3.53;;
14599;SDS011;7386;45.586;12.854;2023-01-23T02:25:49;3.97;;;3.20;;
14599;SDS011;7386;45.586;12.854;2023-01-23T02:28:19;5.10;;;3.50;;
14599;SDS011;7386;45.586;12.854;2023-01-23T02:30:47;5.70;;;4.07;;
14599;SDS011;7386;45.586;12.854;2023-01-23T02:36:03;6.90;;;3.57;;
14599;SDS011;7386;45.586;12.854;2023-01-23T02:38:34;7.10;;;3.97;;
14599;SDS011;7386;45.586;12.854;2023-01-23T02:41:06;9.37;;;4.03;;
14599;SDS011;7386;45.586;12.854;2023-01-23T02:43:36;6.07;;;3.33;;
14599;SDS011;7386;45.586;12.854;2023-01-23T02:46:05;8.57;;;3.70;;
14599;SDS011;7386;45.586;12.854;2023-01-23T02:48:34;6.00;;;3.70;;
14599;SDS011;7386;45.586;12.854;2023-01-23T02:51:02;7.17;;;3.80;;
14599;SDS011;7386;45.586;12.854;2023-01-23T02:53:31;6.33;;;3.40;;
14599;SDS011;7386;45.586;12.854;2023-01-23T02:55:59;6.47;;;3.80;;
14599;SDS011;7386;45.586;12.854;2023-01-23T02:58:29;5.53;;;3.83;;
14599;SDS011;7386;45.586;12.854;2023-01-23T03:01:15;4.67;;;3.57;;
14599;SDS011;7386;45.586;12.854;2023-01-23T03:03:44;6.80;;;3.93;;
14599;SDS011;7386;45.586;12.854;2023-01-23T03:06:12;6.43;;;3.40;;
14599;SDS011;7386;45.586;12.854;2023-01-23T03:08:40;5.97;;;3.60;;
14599;SDS011;7386;45.586;12.854;2023-01-23T03:11:15;3.80;;;3.13;;
14599;SDS011;7386;45.586;12.854;2023-01-23T03:13:45;6.93;;;3.80;;
14599;SDS011;7386;45.586;12.854;2023-01-23T03:16:14;5.17;;;3.63;;
14599;SDS011;7386;45.586;12.854;2023-01-23T03:18:42;3.60;;;2.97;;
14599;SDS011;7386;45.586;12.854;2023-01-23T03:21:20;3.80;;;2.97;;
14599;SDS011;7386;45.586;12.854;2023-01-23T03:23:48;3.53;;;3.10;;
14599;SDS011;7386;45.586;12.854;2023-01-23T03:26:17;5.07;;;3.43;;
14599;SDS011;7386;45.586;12.854;2023-01-23T03:28:46;5.57;;;3.03;;
14599;SDS011;7386;45.586;12.854;2023-01-23T03:31:33;4.33;;;3.10;;
14599;SDS011;7386;45.586;12.854;2023-01-23T03:34:01;3.70;;;3.13;;
14599;SDS011;7386;45.586;12.854;2023-01-23T03:36:30;6.07;;;3.50;;
14599;SDS011;7386;45.586;12.854;2023-01-23T03:38:58;3.83;;;3.07;;
14599;SDS011;7386;45.586;12.854;2023-01-23T03:41:44;3.57;;;2.87;;
14599;SDS011;7386;45.586;12.854;2023-01-23T03:44:16;3.73;;;3.10;;
14599;SDS011;7386;45.586;12.854;2023-01-23T03:46:45;5.43;;;3.13;;
14599;SDS011;7386;45.586;12.854;2023-01-23T03:49:13;5.37;;;3.20;;
14599;SDS011;7386;45.586;12.854;2023-01-23T03:51:42;4.33;;;3.03;;
14599;SDS011;7386;45.586;12.854;2023-01-23T03:54:11;4.10;;;2.93;;
14599;SDS011;7386;45.586;12.854;2023-01-23T03:56:39;4.43;;;3.20;;
14599;SDS011;7386;45.586;12.854;2023-01-23T03:59:08;5.07;;;3.17;;
14599;SDS011;7386;45.586;12.854;2023-01-23T04:01:38;3.93;;;3.07;;
14599;SDS011;7386;45.586;12.854;2023-01-23T04:04:07;4.80;;;3.20;;
14599;SDS011;7386;45.586;12.854;2023-01-23T04:06:35;6.27;;;3.50;;
14599;SDS011;7386;45.586;12.854;2023-01-23T04:09:04;6.03;;;3.17;;
14599;SDS011;7386;45.586;12.854;2023-01-23T04:11:32;13.23;;;4.03;;
14599;SDS011;7386;45.586;12.854;2023-01-23T04:14:01;8.27;;;4.00;;
14599;SDS011;7386;45.586;12.854;2023-01-23T04:16:29;6.00;;;3.70;;
14599;SDS011;7386;45.586;12.854;2023-01-23T04:18:59;8.73;;;3.70;;
14599;SDS011;7386;45.586;12.854;2023-01-23T04:21:28;8.27;;;3.60;;
14599;SDS011;7386;45.586;12.854;2023-01-23T04:23:56;6.70;;;3.30;;
14599;SDS011;7386;45.586;12.854;2023-01-23T04:26:25;7.37;;;3.53;;
14599;SDS011;7386;45.586;12.854;2023-01-23T04:28:53;4.60;;;3.50;;
14599;SDS011;7386;45.586;12.854;2023-01-23T04:31:21;5.37;;;3.17;;
14599;SDS011;7386;45.586;12.854;2023-01-23T04:33:50;5.60;;;3.50;;
14599;SDS011;7386;45.586;12.854;2023-01-23T04:36:20;5.60;;;3.50;;
14599;SDS011;7386;45.586;12.854;2023-01-23T04:38:48;5.70;;;3.20;;
14599;SDS011;7386;45.586;12.854;2023-01-23T04:41:17;7.47;;;3.50;;
14599;SDS011;7386;45.586;12.854;2023-01-23T04:43:46;4.80;;;3.40;;
14599;SDS011;7386;45.586;12.854;2023-01-23T04:46:15;4.03;;;3.30;;
14599;SDS011;7386;45.586;12.854;2023-01-23T04:48:43;4.57;;;3.27;;
14599;SDS011;7386;45.586;12.854;2023-01-23T04:51:14;6.07;;;3.43;;
14599;SDS011;7386;45.586;12.854;2023-01-23T04:53:44;5.37;;;3.50;;
14599;SDS011;7386;45.586;12.854;2023-01-23T04:56:12;8.37;;;3.50;;
14599;SDS011;7386;45.586;12.854;2023-01-23T04:58:41;5.90;;;3.87;;
14599;SDS011;7386;45.586;12.854;2023-01-23T05:01:09;6.40;;;3.60;;
14599;SDS011;7386;45.586;12.854;2023-01-23T05:03:38;4.63;;;3.03;;
14599;SDS011;7386;45.586;12.854;2023-01-23T05:06:06;4.33;;;2.97;;
14599;SDS011;7386;45.586;12.854;2023-01-23T05:08:35;3.60;;;2.97;;
14599;SDS011;7386;45.586;12.854;2023-01-23T05:11:05;3.20;;;2.90;;
14599;SDS011;7386;45.586;12.854;2023-01-23T05:13:33;4.10;;;3.07;;
14599;SDS011;7386;45.586;12.854;2023-01-23T05:16:02;3.37;;;3.07;;
14599;SDS011;7386;45.586;12.854;2023-01-23T05:18:30;4.23;;;3.07;;
14599;SDS011;7386;45.586;12.854;2023-01-23T05:20:58;6.67;;;3.00;;
14599;SDS011;7386;45.586;12.854;2023-01-23T05:23:27;4.47;;;2.87;;
14599;SDS011;7386;45.586;12.854;2023-01-23T05:25:55;3.87;;;2.70;;
14599;SDS011;7386;45.586;12.854;2023-01-23T05:28:25;7.17;;;2.60;;
14599;SDS011;7386;45.586;12.854;2023-01-23T05:30:54;2.70;;;2.33;;
14599;SDS011;7386;45.586;12.854;2023-01-23T05:33:22;2.80;;;2.33;;
14599;SDS011;7386;45.586;12.854;2023-01-23T05:35:51;3.17;;;2.10;;
14599;SDS011;7386;45.586;12.854;2023-01-23T05:38:19;4.77;;;2.30;;
14599;SDS011;7386;45.586;12.854;2023-01-23T05:40:48;3.47;;;2.17;;
14599;SDS011;7386;45.586;12.854;2023-01-23T05:43:16;4.00;;;2.17;;
14599;SDS011;7386;45.586;12.854;2023-01-23T05:45:46;1.93;;;1.80;;
14599;SDS011;7386;45.586;12.854;2023-01-23T05:48:14;3.10;;;2.10;;
14599;SDS011;7386;45.586;12.854;2023-01-23T05:50:43;3.67;;;2.27;;
14599;SDS011;7386;45.586;12.854;2023-01-23T05:53:11;9.07;;;2.23;;
14599;SDS011;7386;45.586;12.854;2023-01-23T05:55:40;3.90;;;2.20;;
14599;SDS011;7386;45.586;12.854;2023-01-23T05:58:08;2.10;;;1.90;;
14599;SDS011;7386;45.586;12.854;2023-01-23T06:00:38;2.40;;;2.20;;
14599;SDS011;7386;45.586;12.854;2023-01-23T06:03:08;2.50;;;2.03;;
14599;SDS011;7386;45.586;12.854;2023-01-23T06:05:36;1.93;;;1.83;;
14599;SDS011;7386;45.586;12.854;2023-01-23T06:08:06;1.90;;;1.80;;
14599;SDS011;7386;45.586;12.854;2023-01-23T06:10:35;2.10;;;2.00;;
14599;SDS011;7386;45.586;12.854;2023-01-23T06:13:04;2.13;;;1.87;;
14599;SDS011;7386;45.586;12.854;2023-01-23T06:15:32;2.10;;;1.90;;
14599;SDS011;7386;45.586;12.854;2023-01-23T06:18:01;3.87;;;2.10;;
14599;SDS011;7386;45.586;12.854;2023-01-23T06:20:31;3.90;;;2.00;;
14599;SDS011;7386;45.586;12.854;2023-01-23T06:22:59;2.00;;;1.80;;
14599;SDS011;7386;45.586;12.854;2023-01-23T06:25:27;4.10;;;1.80;;
14599;SDS011;7386;45.586;12.854;2023-01-23T06:27:56;2.10;;;2.00;;
14599;SDS011;7386;45.586;12.854;2023-01-23T06:30:24;1.80;;;1.70;;
14599;SDS011;7386;45.586;12.854;2023-01-23T06:32:53;2.20;;;2.00;;
14599;SDS011;7386;45.586;12.854;2023-01-23T06:35:21;2.07;;;1.87;;
14599;SDS011;7386;45.586;12.854;2023-01-23T06:37:51;2.23;;;1.97;;
14599;SDS011;7386;45.586;12.854;2023-01-23T06:40:19;1.90;;;1.80;;
14599;SDS011;7386;45.586;12.854;2023-01-23T06:42:48;3.30;;;1.80;;
14599;SDS011;7386;45.586;12.854;2023-01-23T06:45:17;1.60;;;1.50;;
14599;SDS011;7386;45.586;12.854;2023-01-23T06:47:46;1.70;;;1.60;;
14599;SDS011;7386;45.586;12.854;2023-01-23T06:50:15;1.50;;;1.40;;
14599;SDS011;7386;45.586;12.854;2023-01-23T06:52:44;1.67;;;1.57;;
14599;SDS011;7386;45.586;12.854;2023-01-23T06:55:13;1.60;;;1.50;;
14599;SDS011;7386;45.586;12.854;2023-01-23T06:57:42;2.40;;;1.67;;
14599;SDS011;7386;45.586;12.854;2023-01-23T07:00:11;1.60;;;1.50;;
14599;SDS011;7386;45.586;12.854;2023-01-23T07:02:40;1.50;;;1.40;;
14599;SDS011;7386;45.586;12.854;2023-01-23T07:05:11;1.50;;;1.40;;
14599;SDS011;7386;45.586;12.854;2023-01-23T07:07:39;1.50;;;1.40;;
14599;SDS011;7386;45.586;12.854;2023-01-23T07:10:08;1.73;;;1.63;;
14599;SDS011;7386;45.586;12.854;2023-01-23T07:12:38;1.60;;;1.50;;
14599;SDS011;7386;45.586;12.854;2023-01-23T07:15:07;1.70;;;1.60;;
14599;SDS011;7386;45.586;12.854;2023-01-23T07:17:35;1.80;;;1.70;;
14599;SDS011;7386;45.586;12.854;2023-01-23T07:20:04;1.70;;;1.60;;
14599;SDS011;7386;45.586;12.854;2023-01-23T07:22:33;3.53;;;1.80;;
14599;SDS011;7386;45.586;12.854;2023-01-23T07:25:01;2.90;;;1.93;;
14599;SDS011;7386;45.586;12.854;2023-01-23T07:27:30;1.93;;;1.80;;
14599;SDS011;7386;45.586;12.854;2023-01-23T07:30:00;6.83;;;2.10;;
14599;SDS011;7386;45.586;12.854;2023-01-23T07:32:29;2.10;;;1.90;;
14599;SDS011;7386;45.586;12.854;2023-01-23T07:34:57;2.23;;;2.10;;
14599;SDS011;7386;45.586;12.854;2023-01-23T07:37:26;2.47;;;1.97;;
14599;SDS011;7386;45.586;12.854;2023-01-23T07:39:54;2.30;;;2.10;;
14599;SDS011;7386;45.586;12.854;2023-01-23T07:42:23;3.10;;;1.90;;
14599;SDS011;7386;45.586;12.854;2023-01-23T07:44:51;2.30;;;2.10;;
14599;SDS011;7386;45.586;12.854;2023-01-23T07:47:21;2.03;;;1.93;;
14599;SDS011;7386;45.586;12.854;2023-01-23T07:49:49;3.13;;;1.80;;
14599;SDS011;7386;45.586;12.854;2023-01-23T07:52:18;2.40;;;2.20;;
14599;SDS011;7386;45.586;12.854;2023-01-23T07:54:46;1.70;;;1.60;;
14599;SDS011;7386;45.586;12.854;2023-01-23T07:57:15;1.80;;;1.70;;
14599;SDS011;7386;45.586;12.854;2023-01-23T07:59:43;1.70;;;1.60;;
14599;SDS011;7386;45.586;12.854;2023-01-23T08:02:11;1.63;;;1.53;;
14599;SDS011;7386;45.586;12.854;2023-01-23T08:04:41;1.63;;;1.53;;
14599;SDS011;7386;45.586;12.854;2023-01-23T08:07:10;1.80;;;1.70;;
14599;SDS011;7386;45.586;12.854;2023-01-23T08:09:38;1.90;;;1.80;;
14599;SDS011;7386;45.586;12.854;2023-01-23T08:12:07;1.50;;;1.40;;
14599;SDS011;7386;45.586;12.854;2023-01-23T08:14:35;1.80;;;1.70;;
14599;SDS011;7386;45.586;12.854;2023-01-23T08:17:04;1.70;;;1.60;;
14599;SDS011;7386;45.586;12.854;2023-01-23T08:19:32;2.07;;;1.70;;
14599;SDS011;7386;45.586;12.854;2023-01-23T08:22:02;1.63;;;1.50;;
14599;SDS011;7386;45.586;12.854;2023-01-23T08:24:31;4.37;;;1.77;;
14599;SDS011;7386;45.586;12.854;2023-01-23T08:26:59;2.50;;;1.90;;
14599;SDS011;7386;45.586;12.854;2023-01-23T08:29:28;2.63;;;2.17;;
14599;SDS011;7386;45.586;12.854;2023-01-23T08:31:58;5.83;;;1.97;;
14599;SDS011;7386;45.586;12.854;2023-01-23T08:34:26;6.00;;;2.13;;
14599;SDS011;7386;45.586;12.854;2023-01-23T08:36:55;10.77;;;2.30;;
14599;SDS011;7386;45.586;12.854;2023-01-23T08:39:24;10.00;;;2.87;;
14599;SDS011;7386;45.586;12.854;2023-01-23T08:41:53;12.10;;;2.63;;
14599;SDS011;7386;45.586;12.854;2023-01-23T08:44:22;10.17;;;3.10;;
14599;SDS011;7386;45.586;12.854;2023-01-23T08:46:50;6.27;;;2.20;;
14599;SDS011;7386;45.586;12.854;2023-01-23T08:49:19;9.40;;;2.77;;
14599;SDS011;7386;45.586;12.854;2023-01-23T08:51:48;10.43;;;3.40;;
14599;SDS011;7386;45.586;12.854;2023-01-23T08:54:16;6.17;;;2.67;;
14599;SDS011;7386;45.586;12.854;2023-01-23T08:56:46;8.43;;;2.70;;
14599;SDS011;7386;45.586;12.854;2023-01-23T08:59:14;11.43;;;3.03;;
14599;SDS011;7386;45.586;12.854;2023-01-23T09:01:43;40.97;;;5.63;;
14599;SDS011;7386;45.586;12.854;2023-01-23T09:04:13;12.13;;;3.17;;
14599;SDS011;7386;45.586;12.854;2023-01-23T09:06:43;14.00;;;2.90;;
14599;SDS011;7386;45.586;12.854;2023-01-23T09:09:12;17.43;;;3.47;;
14599;SDS011;7386;45.586;12.854;2023-01-23T09:11:40;14.13;;;3.10;;
14599;SDS011;7386;45.586;12.854;2023-01-23T09:14:10;17.20;;;3.63;;
14599;SDS011;7386;45.586;12.854;2023-01-23T09:16:39;29.63;;;4.33;;
14599;SDS011;7386;45.586;12.854;2023-01-23T09:19:07;17.07;;;3.40;;
14599;SDS011;7386;45.586;12.854;2023-01-23T09:21:37;28.63;;;4.23;;
14599;SDS011;7386;45.586;12.854;2023-01-23T09:24:06;31.10;;;4.60;;
14599;SDS011;7386;45.586;12.854;2023-01-23T09:26:35;40.17;;;5.77;;
14599;SDS011;7386;45.586;12.854;2023-01-23T09:29:03;30.23;;;4.80;;
14599;SDS011;7386;45.586;12.854;2023-01-23T09:31:33;29.77;;;5.70;;
14599;SDS011;7386;45.586;12.854;2023-01-23T09:34:02;36.47;;;5.17;;
14599;SDS011;7386;45.586;12.854;2023-01-23T09:36:33;25.60;;;5.60;;
14599;SDS011;7386;45.586;12.854;2023-01-23T09:39:08;29.37;;;4.73;;
14599;SDS011;7386;45.586;12.854;2023-01-23T09:41:37;44.93;;;5.90;;
14599;SDS011;7386;45.586;12.854;2023-01-23T09:44:07;33.03;;;5.70;;
14599;SDS011;7386;45.586;12.854;2023-01-23T09:46:40;26.03;;;4.30;;
14599;SDS011;7386;45.586;12.854;2023-01-23T09:49:11;29.73;;;3.63;;
14599;SDS011;7386;45.586;12.854;2023-01-23T09:51:46;31.77;;;4.00;;
14599;SDS011;7386;45.586;12.854;2023-01-23T09:57:12;49.20;;;5.93;;
14599;SDS011;7386;45.586;12.854;2023-01-23T09:59:42;31.77;;;4.90;;
14599;SDS011;7386;45.586;12.854;2023-01-23T10:02:26;45.07;;;4.73;;
14599;SDS011;7386;45.586;12.854;2023-01-23T10:04:55;43.17;;;5.47;;
14599;SDS011;7386;45.586;12.854;2023-01-23T10:07:32;46.77;;;5.27;;
14599;SDS011;7386;45.586;12.854;2023-01-23T10:10:11;34.00;;;4.87;;
14599;SDS011;7386;45.586;12.854;2023-01-23T10:12:43;42.10;;;5.23;;
14599;SDS011;7386;45.586;12.854;2023-01-23T10:15:26;45.00;;;6.07;;
14599;SDS011;7386;45.586;12.854;2023-01-23T10:17:58;31.90;;;5.50;;
14599;SDS011;7386;45.586;12.854;2023-01-23T10:20:40;52.17;;;6.33;;
14599;SDS011;7386;45.586;12.854;2023-01-23T10:23:13;44.93;;;6.37;;
14599;SDS011;7386;45.586;12.854;2023-01-23T10:25:44;37.40;;;5.97;;
14599;SDS011;7386;45.586;12.854;2023-01-23T10:28:15;73.53;;;8.37;;
14599;SDS011;7386;45.586;12.854;2023-01-23T10:30:45;55.23;;;7.43;;
14599;SDS011;7386;45.586;12.854;2023-01-23T10:33:16;63.50;;;6.43;;
14599;SDS011;7386;45.586;12.854;2023-01-23T10:35:46;36.30;;;5.80;;
14599;SDS011;7386;45.586;12.854;2023-01-23T10:38:21;29.33;;;6.47;;
14599;SDS011;7386;45.586;12.854;2023-01-23T10:40:51;25.07;;;4.47;;
14599;SDS011;7386;45.586;12.854;2023-01-23T10:43:38;23.43;;;3.80;;
14599;SDS011;7386;45.586;12.854;2023-01-23T10:46:07;27.20;;;3.77;;
14599;SDS011;7386;45.586;12.854;2023-01-23T10:48:40;25.63;;;4.10;;
14599;SDS011;7386;45.586;12.854;2023-01-23T10:54:11;37.63;;;4.77;;
14599;SDS011;7386;45.586;12.854;2023-01-23T10:56:57;46.77;;;6.60;;
14599;SDS011;7386;45.586;12.854;2023-01-23T10:59:28;48.27;;;7.10;;
14599;SDS011;7386;45.586;12.854;2023-01-23T11:02:02;39.20;;;5.30;;
14599;SDS011;7386;45.586;12.854;2023-01-23T11:04:35;56.37;;;7.30;;
14599;SDS011;7386;45.586;12.854;2023-01-23T11:07:05;42.23;;;6.90;;
14599;SDS011;7386;45.586;12.854;2023-01-23T11:09:43;35.30;;;6.30;;
14599;SDS011;7386;45.586;12.854;2023-01-23T11:12:17;66.27;;;7.20;;
14599;SDS011;7386;45.586;12.854;2023-01-23T11:14:46;56.80;;;6.33;;
14599;SDS011;7386;45.586;12.854;2023-01-23T11:17:16;27.10;;;4.70;;
14599;SDS011;7386;45.586;12.854;2023-01-23T11:19:47;28.27;;;4.03;;
14599;SDS011;7386;45.586;12.854;2023-01-23T11:22:27;60.43;;;6.80;;
14599;SDS011;7386;45.586;12.854;2023-01-23T11:24:56;71.10;;;7.57;;
14599;SDS011;7386;45.586;12.854;2023-01-23T11:27:25;38.43;;;4.77;;
14599;SDS011;7386;45.586;12.854;2023-01-23T11:30:01;34.77;;;5.60;;
14599;SDS011;7386;45.586;12.854;2023-01-23T11:32:31;32.97;;;4.87;;
14599;SDS011;7386;45.586;12.854;2023-01-23T11:35:04;27.37;;;5.10;;
14599;SDS011;7386;45.586;12.854;2023-01-23T11:37:37;51.57;;;6.23;;
14599;SDS011;7386;45.586;12.854;2023-01-23T11:40:09;44.13;;;7.20;;
14599;SDS011;7386;45.586;12.854;2023-01-23T11:42:39;36.70;;;5.47;;
14599;SDS011;7386;45.586;12.854;2023-01-23T11:45:11;47.20;;;5.80;;
14599;SDS011;7386;45.586;12.854;2023-01-23T11:47:46;53.10;;;8.00;;
14599;SDS011;7386;45.586;12.854;2023-01-23T11:53:23;50.90;;;6.97;;
14599;SDS011;7386;45.586;12.854;2023-01-23T11:59:25;53.03;;;7.70;;
14599;SDS011;7386;45.586;12.854;2023-01-23T12:02:09;29.53;;;5.00;;
14599;SDS011;7386;45.586;12.854;2023-01-23T12:04:48;47.30;;;5.90;;
14599;SDS011;7386;45.586;12.854;2023-01-23T12:07:20;53.20;;;7.47;;
14599;SDS011;7386;45.586;12.854;2023-01-23T12:09:58;59.93;;;7.80;;
14599;SDS011;7386;45.586;12.854;2023-01-23T12:12:31;37.10;;;5.73;;
14599;SDS011;7386;45.586;12.854;2023-01-23T12:15:05;55.00;;;6.30;;
14599;SDS011;7386;45.586;12.854;2023-01-23T12:17:40;42.37;;;5.87;;
14599;SDS011;7386;45.586;12.854;2023-01-23T12:20:16;27.90;;;4.97;;
14599;SDS011;7386;45.586;12.854;2023-01-23T12:22:52;31.00;;;5.23;;
14599;SDS011;7386;45.586;12.854;2023-01-23T12:25:25;20.23;;;3.47;;
14599;SDS011;7386;45.586;12.854;2023-01-23T12:27:56;18.23;;;3.53;;
14599;SDS011;7386;45.586;12.854;2023-01-23T12:30:31;17.97;;;3.47;;
14599;SDS011;7386;45.586;12.854;2023-01-23T12:33:07;22.20;;;4.13;;
14599;SDS011;7386;45.586;12.854;2023-01-23T12:35:43;15.10;;;3.00;;
14599;SDS011;7386;45.586;12.854;2023-01-23T12:38:23;11.97;;;2.70;;
14599;SDS011;7386;45.586;12.854;2023-01-23T12:40:55;10.70;;;2.23;;
14599;SDS011;7386;45.586;12.854;2023-01-23T12:43:32;15.63;;;2.73;;
14599;SDS011;7386;45.586;12.854;2023-01-23T12:46:04;21.07;;;3.27;;
14599;SDS011;7386;45.586;12.854;2023-01-23T12:48:33;21.10;;;4.17;;
14599;SDS011;7386;45.586;12.854;2023-01-23T12:51:05;14.73;;;3.40;;
14599;SDS011;7386;45.586;12.854;2023-01-23T12:53:35;11.17;;;2.70;;
14599;SDS011;7386;45.586;12.854;2023-01-23T12:56:07;13.53;;;3.57;;
14599;SDS011;7386;45.586;12.854;2023-01-23T12:58:39;18.27;;;3.63;;
14599;SDS011;7386;45.586;12.854;2023-01-23T13:01:19;14.77;;;3.03;;
14599;SDS011;7386;45.586;12.854;2023-01-23T13:04:01;15.93;;;3.00;;
14599;SDS011;7386;45.586;12.854;2023-01-23T13:06:34;15.40;;;3.33;;
14599;SDS011;7386;45.586;12.854;2023-01-23T13:09:11;12.90;;;3.93;;
14599;SDS011;7386;45.586;12.854;2023-01-23T13:11:48;13.43;;;3.33;;
14599;SDS011;7386;45.586;12.854;2023-01-23T13:14:19;13.17;;;3.17;;
14599;SDS011;7386;45.586;12.854;2023-01-23T13:16:57;16.17;;;3.90;;
14599;SDS011;7386;45.586;12.854;2023-01-23T13:19:28;14.07;;;3.10;;
14599;SDS011;7386;45.586;12.854;2023-01-23T13:22:17;14.37;;;3.53;;
14599;SDS011;7386;45.586;12.854;2023-01-23T13:24:59;21.70;;;3.23;;
14599;SDS011;7386;45.586;12.854;2023-01-23T13:27:40;11.50;;;3.00;;
14599;SDS011;7386;45.586;12.854;2023-01-23T13:32:58;14.87;;;3.60;;
14599;SDS011;7386;45.586;12.854;2023-01-23T13:38:27;9.83;;;2.30;;
14599;SDS011;7386;45.586;12.854;2023-01-23T13:43:51;14.33;;;2.97;;
14599;SDS011;7386;45.586;12.854;2023-01-23T13:46:22;12.70;;;2.60;;
14599;SDS011;7386;45.586;12.854;2023-01-23T13:48:53;10.93;;;2.67;;
14599;SDS011;7386;45.586;12.854;2023-01-23T13:51:57;15.83;;;3.57;;
14599;SDS011;7386;45.586;12.854;2023-01-23T13:54:40;14.53;;;2.97;;
14599;SDS011;7386;45.586;12.854;2023-01-23T13:57:40;13.77;;;3.70;;
14599;SDS011;7386;45.586;12.854;2023-01-23T14:00:24;30.40;;;4.30;;
14599;SDS011;7386;45.586;12.854;2023-01-23T14:03:14;16.23;;;4.20;;
14599;SDS011;7386;45.586;12.854;2023-01-23T14:06:14;13.80;;;2.90;;
14599;SDS011;7386;45.586;12.854;2023-01-23T14:17:37;14.93;;;3.53;;
14599;SDS011;7386;45.586;12.854;2023-01-23T14:20:20;17.03;;;3.53;;
14599;SDS011;7386;45.586;12.854;2023-01-23T14:22:49;14.60;;;3.67;;
14599;SDS011;7386;45.586;12.854;2023-01-23T14:25:21;14.50;;;3.40;;
14599;SDS011;7386;45.586;12.854;2023-01-23T14:28:00;16.03;;;2.77;;
14599;SDS011;7386;45.586;12.854;2023-01-23T14:30:29;13.37;;;4.07;;
14599;SDS011;7386;45.586;12.854;2023-01-23T14:32:59;15.23;;;3.83;;
14599;SDS011;7386;45.586;12.854;2023-01-23T14:35:28;16.57;;;2.77;;
14599;SDS011;7386;45.586;12.854;2023-01-23T14:37:58;11.53;;;3.40;;
14599;SDS011;7386;45.586;12.854;2023-01-23T14:40:27;18.50;;;3.80;;
14599;SDS011;7386;45.586;12.854;2023-01-23T14:43:15;13.47;;;3.10;;
14599;SDS011;7386;45.586;12.854;2023-01-23T14:45:45;18.20;;;3.40;;
14599;SDS011;7386;45.586;12.854;2023-01-23T14:48:16;9.17;;;3.30;;
14599;SDS011;7386;45.586;12.854;2023-01-23T14:50:45;9.63;;;2.33;;
14599;SDS011;7386;45.586;12.854;2023-01-23T14:53:14;10.83;;;2.60;;
14599;SDS011;7386;45.586;12.854;2023-01-23T14:55:44;6.47;;;2.70;;
14599;SDS011;7386;45.586;12.854;2023-01-23T14:58:17;4.50;;;3.07;;
14599;SDS011;7386;45.586;12.854;2023-01-23T15:00:48;3.57;;;2.30;;
14599;SDS011;7386;45.586;12.854;2023-01-23T15:06:02;4.30;;;2.47;;
14599;SDS011;7386;45.586;12.854;2023-01-23T15:08:32;3.97;;;2.80;;
14599;SDS011;7386;45.586;12.854;2023-01-23T15:11:01;5.63;;;2.20;;
14599;SDS011;7386;45.586;12.854;2023-01-23T15:13:34;6.20;;;2.17;;
14599;SDS011;7386;45.586;12.854;2023-01-23T15:16:04;5.03;;;2.73;;
14599;SDS011;7386;45.586;12.854;2023-01-23T15:18:33;5.60;;;1.80;;
14599;SDS011;7386;45.586;12.854;2023-01-23T15:21:04;5.37;;;2.20;;
14599;SDS011;7386;45.586;12.854;2023-01-23T15:23:33;9.20;;;2.60;;
14599;SDS011;7386;45.586;12.854;2023-01-23T15:26:09;6.63;;;2.40;;
14599;SDS011;7386;45.586;12.854;2023-01-23T15:28:39;4.43;;;2.40;;
14599;SDS011;7386;45.586;12.854;2023-01-23T15:31:20;3.87;;;2.33;;
14599;SDS011;7386;45.586;12.854;2023-01-23T15:33:50;4.23;;;2.60;;
14599;SDS011;7386;45.586;12.854;2023-01-23T15:36:24;6.60;;;2.30;;
14599;SDS011;7386;45.586;12.854;2023-01-23T15:38:53;1.80;;;1.63;;
14599;SDS011;7386;45.586;12.854;2023-01-23T15:41:36;5.33;;;2.20;;
14599;SDS011;7386;45.586;12.854;2023-01-23T15:44:09;3.13;;;1.80;;